Weather at Tanjung Manis Airport

Public forecast

Using degrees Celsius for public forecast. Weather courtesy of forecast.io.

Closest aviation weather report (METAR) to Tanjung Manis Airport

Closest report is Sibu Airport, 47.2 nm (87.5 km) E. Retrieved 2021/08/01 01:00 UTC (2 minutes ago):

WBGS 010100Z 16003KT 110V230 9999 FEW016 28/25 Q1011

Closest aviation forecast (TAF) to Tanjung Manis Airport

Closest forecast is Sibu Airport, 47.2 nm (87.5 km) E. Retrieved 2021-08-01 00:00 UTC (1 hour ago):

TAF WBGS 312300Z 0100/0200 21005KT 9999 SCT018